Time;durP1;ratioP1;P1;durP2;ratioP2;P2;SDS_P1;SDS_P2;PMS_P1;PMS_P2;Temp;Humidity;BMP_temperature;BMP_pressure;BME280_temperature;BME280_humidity;BME280_pressure;Samples;Min_cycle;Max_cycle;Signal;HPM_P1;HPM_P2
2024/03/23 00:01:47;;;;;;;42.55;7.80;;;7.20;99.90;;;;;;5013958;28;20033;-78
2024/03/23 00:04:14;;;;;;;49.50;9.27;;;7.10;99.90;;;;;;5013269;28;20029;-76
2024/03/23 00:06:40;;;;;;;38.35;7.47;;;7.10;99.90;;;;;;5012691;28;20471;-75
2024/03/23 00:09:07;;;;;;;46.58;8.65;;;7.10;99.90;;;;;;5013316;28;20026;-76
2024/03/23 00:11:37;;;;;;;52.83;6.63;;;7.10;99.90;;;;;;5013351;28;20045;-76
2024/03/23 00:14:04;;;;;;;42.80;6.10;;;7.10;99.90;;;;;;5013481;28;20036;-76
2024/03/23 00:16:31;;;;;;;33.17;6.10;;;7.10;99.90;;;;;;5014406;28;20101;-76
2024/03/23 00:18:58;;;;;;;44.25;7.03;;;7.00;99.90;;;;;;5013702;28;20026;-75
2024/03/23 00:21:24;;;;;;;46.08;8.50;;;7.00;99.90;;;;;;5012576;28;20022;-76
2024/03/23 00:23:51;;;;;;;40.22;6.80;;;7.00;99.90;;;;;;5014035;28;20037;-76
2024/03/23 00:26:17;;;;;;;39.40;6.22;;;7.00;99.90;;;;;;5014258;28;20034;-77
2024/03/23 00:28:44;;;;;;;49.70;7.43;;;6.90;99.90;;;;;;5013917;28;20150;-77
2024/03/23 00:31:11;;;;;;;42.70;6.50;;;6.90;99.90;;;;;;5014089;28;20018;-76
2024/03/23 00:33:38;;;;;;;40.63;5.47;;;6.90;99.90;;;;;;5019427;28;20026;-76
2024/03/23 00:36:04;;;;;;;37.55;6.60;;;6.80;99.90;;;;;;5012866;28;20093;-76
2024/03/23 00:38:31;;;;;;;38.10;6.13;;;6.80;99.90;;;;;;5014034;28;20033;-76
2024/03/23 00:41:00;;;;;;;37.80;5.95;;;6.80;99.90;;;;;;5019198;28;20065;-75
2024/03/23 00:43:27;;;;;;;51.13;6.57;;;6.80;99.90;;;;;;5012733;28;20032;-76
2024/03/23 00:45:53;;;;;;;47.75;7.03;;;6.80;99.90;;;;;;5012380;28;20033;-74
2024/03/23 00:48:20;;;;;;;45.22;7.38;;;6.70;99.90;;;;;;5012212;28;20176;-77
2024/03/23 00:50:47;;;;;;;38.13;6.80;;;6.80;99.90;;;;;;5012360;28;20400;-76
2024/03/23 00:53:14;;;;;;;41.63;6.43;;;6.70;99.90;;;;;;5012377;28;20033;-75
2024/03/23 00:55:41;;;;;;;52.20;6.57;;;6.70;99.90;;;;;;5011911;28;20034;-76
2024/03/23 00:58:06;;;;;;;50.17;7.22;;;6.70;99.90;;;;;;5013853;28;20032;-75
2024/03/23 01:00:32;;;;;;;37.58;6.45;;;6.70;99.90;;;;;;5012042;28;20062;-76
2024/03/23 01:02:58;;;;;;;46.67;7.20;;;6.70;99.90;;;;;;5011093;28;20050;-75
2024/03/23 01:05:23;;;;;;;45.08;7.00;;;6.70;99.90;;;;;;5012563;28;20022;-76
2024/03/23 01:07:49;;;;;;;42.25;7.32;;;6.70;99.90;;;;;;5012856;28;20033;-76
2024/03/23 01:10:15;;;;;;;49.47;6.70;;;6.70;99.90;;;;;;5013333;28;20022;-75
2024/03/23 01:12:40;;;;;;;39.00;7.20;;;6.70;99.90;;;;;;5011861;28;20445;-75
2024/03/23 01:15:06;;;;;;;37.03;6.93;;;6.70;99.90;;;;;;5011221;28;20022;-74
2024/03/23 01:17:31;;;;;;;42.97;7.13;;;6.70;99.90;;;;;;5012122;28;20026;-76
2024/03/23 01:19:57;;;;;;;40.60;6.50;;;6.70;99.90;;;;;;5012830;28;20035;-77
2024/03/23 01:22:23;;;;;;;43.03;6.75;;;6.70;99.90;;;;;;5012343;28;20034;-75
2024/03/23 01:24:48;;;;;;;44.55;6.70;;;6.70;99.90;;;;;;5012291;28;20034;-76
2024/03/23 01:27:14;;;;;;;38.80;5.80;;;6.70;99.90;;;;;;5011153;28;20066;-74
2024/03/23 01:29:40;;;;;;;44.22;5.80;;;6.70;99.90;;;;;;5012100;28;20045;-77
2024/03/23 01:32:06;;;;;;;39.65;6.05;;;6.70;99.90;;;;;;5012886;28;20096;-75
2024/03/23 01:34:32;;;;;;;35.45;5.13;;;6.70;99.90;;;;;;5012175;28;20015;-74
2024/03/23 01:36:58;;;;;;;32.13;5.38;;;6.70;99.90;;;;;;5012513;28;20029;-75
2024/03/23 01:39:24;;;;;;;37.38;5.90;;;6.80;99.90;;;;;;5012171;28;20038;-77
2024/03/23 01:41:50;;;;;;;26.17;4.97;;;6.70;99.90;;;;;;5012830;28;20564;-76
2024/03/23 01:44:17;;;;;;;41.65;6.70;;;6.70;99.90;;;;;;5010863;28;20030;-75
2024/03/23 01:46:43;;;;;;;37.85;6.20;;;6.70;99.90;;;;;;5012160;28;20033;-75
2024/03/23 01:49:09;;;;;;;37.22;5.63;;;6.70;99.90;;;;;;5012510;28;20052;-77
2024/03/23 01:51:36;;;;;;;36.88;5.55;;;6.60;99.90;;;;;;5012335;28;20026;-77
2024/03/23 01:54:05;;;;;;;40.63;5.80;;;6.60;99.90;;;;;;5010930;28;20025;-76
2024/03/23 01:56:35;;;;;;;42.65;5.78;;;6.60;99.90;;;;;;5013182;28;20025;-76
2024/03/23 01:59:02;;;;;;;35.97;6.50;;;6.60;99.90;;;;;;5011436;28;20122;-75
2024/03/23 02:01:27;;;;;;;36.13;6.45;;;6.50;99.90;;;;;;5010313;28;20057;-76
2024/03/23 02:03:53;;;;;;;36.97;6.07;;;6.50;99.90;;;;;;5010315;28;20050;-76
2024/03/23 02:06:18;;;;;;;35.13;6.70;;;6.40;99.90;;;;;;5010203;28;20026;-75
2024/03/23 02:08:44;;;;;;;37.53;6.10;;;6.50;99.90;;;;;;5011848;28;20025;-77
2024/03/23 02:11:10;;;;;;;34.45;6.70;;;6.40;99.90;;;;;;5012261;28;20017;-76
2024/03/23 02:13:36;;;;;;;37.40;6.18;;;6.40;99.90;;;;;;5010497;28;20054;-75
2024/03/23 02:16:02;;;;;;;43.00;7.30;;;6.40;99.90;;;;;;5012059;28;20029;-76
2024/03/23 02:18:27;;;;;;;43.45;6.88;;;6.40;99.90;;;;;;5011949;28;20112;-76
2024/03/23 02:20:53;;;;;;;34.80;6.40;;;6.50;99.90;;;;;;5011366;28;20062;-75
2024/03/23 02:23:19;;;;;;;47.78;5.43;;;6.40;99.90;;;;;;5011626;28;20064;-75
2024/03/23 02:25:45;;;;;;;43.38;6.03;;;6.40;99.90;;;;;;5010609;28;20072;-76
2024/03/23 02:28:11;;;;;;;43.42;5.40;;;6.40;99.90;;;;;;5012557;28;20030;-75
2024/03/23 02:30:37;;;;;;;35.58;5.93;;;6.40;99.90;;;;;;5014881;28;20033;-76
2024/03/23 02:33:03;;;;;;;38.40;5.28;;;6.40;99.90;;;;;;5014119;28;20032;-75
2024/03/23 02:35:29;;;;;;;41.45;6.20;;;6.40;99.90;;;;;;5015595;28;20124;-76
2024/03/23 02:37:56;;;;;;;34.90;5.88;;;6.40;99.90;;;;;;5014645;28;20062;-77
2024/03/23 02:40:23;;;;;;;37.88;5.78;;;6.40;99.90;;;;;;5015180;28;20030;-76
2024/03/23 02:42:48;;;;;;;31.05;5.50;;;6.40;99.90;;;;;;5015080;28;20022;-75
2024/03/23 02:45:14;;;;;;;34.75;5.60;;;6.40;99.90;;;;;;5015997;28;20080;-74
2024/03/23 02:47:39;;;;;;;36.15;5.35;;;6.40;99.90;;;;;;5015230;28;20414;-75
2024/03/23 02:50:05;;;;;;;33.83;5.13;;;6.30;99.90;;;;;;5014418;28;20033;-75
2024/03/23 02:52:31;;;;;;;34.63;5.30;;;6.30;99.90;;;;;;5014433;28;20034;-76
2024/03/23 02:54:57;;;;;;;35.38;5.60;;;6.40;99.90;;;;;;5014559;28;20089;-76
2024/03/23 02:57:23;;;;;;;36.60;5.28;;;6.40;99.90;;;;;;5015188;28;20137;-75
2024/03/23 02:59:49;;;;;;;32.03;5.13;;;6.40;99.90;;;;;;5014149;28;20039;-74
2024/03/23 03:02:15;;;;;;;33.13;4.95;;;6.40;99.90;;;;;;5014589;28;20497;-74
2024/03/23 03:04:41;;;;;;;31.40;5.90;;;6.30;99.90;;;;;;5013896;28;20026;-77
2024/03/23 03:07:07;;;;;;;33.35;5.22;;;6.40;99.90;;;;;;5015240;28;20137;-77
2024/03/23 03:09:32;;;;;;;38.15;5.78;;;6.40;99.90;;;;;;5013559;28;20034;-75
2024/03/23 03:11:58;;;;;;;39.35;5.75;;;6.30;99.90;;;;;;5014979;28;20018;-76
2024/03/23 03:14:24;;;;;;;25.60;5.10;;;6.30;99.90;;;;;;5013756;28;20033;-76
2024/03/23 03:16:49;;;;;;;29.13;4.97;;;6.30;99.90;;;;;;5014611;28;20018;-76
2024/03/23 03:19:16;;;;;;;36.53;4.78;;;6.30;99.90;;;;;;5015212;28;20061;-75
2024/03/23 03:21:42;;;;;;;38.17;5.30;;;6.30;99.90;;;;;;5013740;28;20022;-75
2024/03/23 03:24:07;;;;;;;34.22;5.22;;;6.30;99.90;;;;;;5014745;28;20094;-74
2024/03/23 03:26:33;;;;;;;43.17;6.18;;;6.30;99.90;;;;;;5014309;28;20038;-76
2024/03/23 03:28:59;;;;;;;38.38;5.90;;;6.30;99.90;;;;;;5015775;28;20582;-75
2024/03/23 03:31:24;;;;;;;37.03;6.30;;;6.20;99.90;;;;;;5013437;28;20045;-76
2024/03/23 03:33:53;;;;;;;35.35;5.18;;;6.20;99.90;;;;;;5014667;28;20030;-75
2024/03/23 03:36:19;;;;;;;39.72;5.38;;;6.20;99.90;;;;;;5013346;28;20034;-74
2024/03/23 03:38:45;;;;;;;31.55;5.47;;;6.20;99.90;;;;;;5013683;28;20038;-75
2024/03/23 03:41:11;;;;;;;37.78;5.45;;;6.20;99.90;;;;;;5014139;28;20034;-75
2024/03/23 03:43:36;;;;;;;33.92;5.07;;;6.20;99.90;;;;;;5013238;28;20081;-74
2024/03/23 03:46:02;;;;;;;40.25;5.97;;;6.20;99.90;;;;;;5014236;28;20586;-73
2024/03/23 03:48:28;;;;;;;29.75;5.38;;;6.10;99.90;;;;;;5014337;28;20022;-74
2024/03/23 03:50:54;;;;;;;39.03;6.38;;;6.20;99.90;;;;;;5014031;28;20029;-76
2024/03/23 03:53:20;;;;;;;42.03;6.97;;;6.20;99.90;;;;;;5013295;28;20018;-75
2024/03/23 03:55:46;;;;;;;36.15;6.10;;;6.10;99.90;;;;;;5014131;28;20026;-75
2024/03/23 03:58:12;;;;;;;38.53;5.40;;;6.10;99.90;;;;;;5012872;28;20041;-75
2024/03/23 04:00:38;;;;;;;37.45;6.30;;;6.10;99.90;;;;;;5014180;28;20035;-74
2024/03/23 04:03:03;;;;;;;35.05;6.03;;;6.10;99.90;;;;;;5013787;28;20045;-74
2024/03/23 04:05:29;;;;;;;37.08;5.47;;;6.10;99.90;;;;;;5014104;28;20026;-75
2024/03/23 04:07:54;;;;;;;41.78;5.68;;;6.10;99.90;;;;;;5014019;28;20030;-74
2024/03/23 04:10:20;;;;;;;33.45;5.20;;;6.10;99.90;;;;;;5014098;28;20037;-75
2024/03/23 04:12:47;;;;;;;32.33;5.57;;;6.00;99.90;;;;;;5013737;28;20027;-75
2024/03/23 04:15:13;;;;;;;29.38;5.50;;;6.00;99.90;;;;;;5012724;28;20025;-75
2024/03/23 04:17:39;;;;;;;40.33;5.90;;;6.00;99.90;;;;;;5013914;28;20086;-74
2024/03/23 04:20:08;;;;;;;38.70;5.88;;;6.10;99.90;;;;;;5012197;28;20756;-74
2024/03/23 04:22:34;;;;;;;40.20;5.68;;;6.00;99.90;;;;;;5014030;28;20417;-75
2024/03/23 04:25:03;;;;;;;40.45;6.55;;;6.00;99.90;;;;;;5013465;28;20041;-74
2024/03/23 04:27:29;;;;;;;40.03;6.05;;;6.10;99.90;;;;;;5012327;28;20022;-74
2024/03/23 04:29:54;;;;;;;37.97;5.68;;;6.00;99.90;;;;;;5014502;28;20048;-74
2024/03/23 04:32:20;;;;;;;36.10;5.45;;;6.00;99.90;;;;;;5014268;28;20026;-74
2024/03/23 04:34:46;;;;;;;40.28;6.35;;;6.00;99.90;;;;;;5012103;28;20053;-75
2024/03/23 04:37:11;;;;;;;37.05;6.10;;;6.00;99.90;;;;;;5012619;28;20037;-76
2024/03/23 04:39:37;;;;;;;40.13;6.07;;;6.00;99.90;;;;;;5011600;28;20034;-76
2024/03/23 04:42:04;;;;;;;41.35;6.15;;;6.00;99.90;;;;;;5012198;28;20112;-75
2024/03/23 04:44:30;;;;;;;39.53;5.95;;;6.00;99.90;;;;;;5012111;28;20050;-74
2024/03/23 04:46:56;;;;;;;47.08;6.22;;;6.00;99.90;;;;;;5011560;28;20030;-75
2024/03/23 04:49:22;;;;;;;39.83;6.43;;;6.00;99.90;;;;;;5013188;28;20026;-74
2024/03/23 04:51:48;;;;;;;48.28;6.45;;;6.00;99.90;;;;;;5010706;28;20077;-75
2024/03/23 04:54:13;;;;;;;37.55;6.03;;;6.00;99.90;;;;;;5034081;28;20109;-76
2024/03/23 04:56:39;;;;;;;39.10;7.03;;;5.90;99.90;;;;;;5014080;28;20038;-75
2024/03/23 04:59:05;;;;;;;36.20;6.18;;;6.00;99.90;;;;;;5011397;28;20114;-75
2024/03/23 05:01:33;;;;;;;36.13;6.05;;;5.90;99.90;;;;;;5011110;28;20075;-74
2024/03/23 05:03:59;;;;;;;34.80;5.82;;;5.90;99.90;;;;;;5012785;28;20034;-75
2024/03/23 05:06:25;;;;;;;43.17;7.15;;;6.00;99.90;;;;;;5011891;28;20086;-75
2024/03/23 05:08:51;;;;;;;43.25;6.72;;;5.90;99.90;;;;;;5012620;28;20386;-75
2024/03/23 05:11:17;;;;;;;42.13;6.25;;;5.80;99.90;;;;;;5012910;28;20466;-76
2024/03/23 05:13:44;;;;;;;45.25;6.97;;;5.80;99.90;;;;;;5012551;28;20391;-76
2024/03/23 05:16:09;;;;;;;35.25;5.95;;;5.90;99.90;;;;;;5011346;28;20017;-75
2024/03/23 05:18:35;;;;;;;44.08;6.90;;;5.80;99.90;;;;;;5011096;28;20377;-76
2024/03/23 05:21:01;;;;;;;36.50;7.10;;;5.80;99.90;;;;;;5011042;28;20064;-77
2024/03/23 05:23:28;;;;;;;49.78;6.88;;;5.70;99.90;;;;;;5011196;28;20030;-76
2024/03/23 05:25:54;;;;;;;40.70;7.13;;;5.80;99.90;;;;;;5011609;28;20026;-77
2024/03/23 05:28:21;;;;;;;42.60;6.85;;;5.60;99.90;;;;;;5011367;28;20083;-75
2024/03/23 05:30:51;;;;;;;45.47;7.63;;;5.60;99.90;;;;;;5011299;28;20102;-76
2024/03/23 05:33:19;;;;;;;38.00;6.70;;;5.70;99.90;;;;;;5012301;28;20160;-76
2024/03/23 05:35:44;;;;;;;41.42;7.50;;;5.60;99.90;;;;;;5011502;28;20391;-76
2024/03/23 05:38:10;;;;;;;43.58;7.20;;;5.50;99.90;;;;;;5012348;28;20030;-77
2024/03/23 05:40:37;;;;;;;43.47;6.97;;;5.60;99.90;;;;;;5012312;28;20444;-77
2024/03/23 05:43:03;;;;;;;33.58;6.22;;;5.50;99.90;;;;;;5010690;28;20090;-75
2024/03/23 05:45:29;;;;;;;30.92;6.53;;;5.50;99.90;;;;;;5010544;28;20037;-76
2024/03/23 05:47:56;;;;;;;39.97;6.20;;;5.50;99.90;;;;;;5012491;28;20117;-77
2024/03/23 05:50:22;;;;;;;42.17;6.40;;;5.50;99.90;;;;;;5010521;28;20041;-78
2024/03/23 05:52:49;;;;;;;34.90;6.55;;;5.40;99.90;;;;;;5011718;28;20030;-77
2024/03/23 05:55:15;;;;;;;41.38;7.03;;;5.40;99.90;;;;;;5011563;28;20037;-76
2024/03/23 05:57:40;;;;;;;42.38;7.07;;;5.40;99.90;;;;;;5011621;28;20054;-75
2024/03/23 06:00:15;;;;;;;47.20;7.53;;;5.40;99.90;;;;;;5012995;28;20045;-75
2024/03/23 06:02:41;;;;;;;42.22;8.13;;;5.40;99.90;;;;;;5010588;28;20177;-75
2024/03/23 06:05:07;;;;;;;47.78;7.07;;;5.60;99.90;;;;;;5010294;28;20026;-75
2024/03/23 06:07:33;;;;;;;39.88;7.15;;;5.40;99.90;;;;;;5012013;28;20080;-74
2024/03/23 06:09:58;;;;;;;33.95;7.10;;;5.40;99.90;;;;;;5010373;28;20026;-75
2024/03/23 06:12:24;;;;;;;35.80;6.72;;;5.40;99.90;;;;;;5012423;28;20025;-75
2024/03/23 06:14:49;;;;;;;45.55;7.07;;;5.40;99.90;;;;;;5011991;28;20111;-75
2024/03/23 06:17:15;;;;;;;42.03;6.25;;;5.40;99.90;;;;;;5010659;28;20355;-76
2024/03/23 06:19:41;;;;;;;38.53;7.03;;;5.40;99.90;;;;;;5010723;28;20075;-76
2024/03/23 06:22:06;;;;;;;43.17;6.60;;;5.40;99.90;;;;;;5010604;28;20069;-77
2024/03/23 06:24:32;;;;;;;48.20;6.78;;;5.40;99.90;;;;;;5010292;28;20096;-77
2024/03/23 06:26:57;;;;;;;43.25;7.45;;;5.40;99.90;;;;;;5009132;28;20798;-75
2024/03/23 06:29:23;;;;;;;45.80;7.85;;;5.40;99.90;;;;;;5011393;28;20034;-76
2024/03/23 06:31:54;;;;;;;41.58;7.75;;;5.40;99.90;;;;;;5010920;28;20025;-76
2024/03/23 06:34:21;;;;;;;33.08;5.72;;;5.40;99.90;;;;;;5010491;28;20033;-74
2024/03/23 06:36:47;;;;;;;40.80;7.10;;;5.50;99.90;;;;;;5011885;28;20554;-77
2024/03/23 06:39:15;;;;;;;42.97;6.63;;;5.60;99.90;;;;;;5010408;28;20077;-74
2024/03/23 06:41:51;;;;;;;40.92;6.68;;;5.70;99.90;;;;;;5012117;28;20034;-77
2024/03/23 06:44:17;;;;;;;31.40;6.55;;;5.70;99.90;;;;;;5010881;28;20026;-76
2024/03/23 06:46:43;;;;;;;41.83;6.95;;;5.70;99.90;;;;;;5009670;28;20026;-75
2024/03/23 06:49:08;;;;;;;46.85;7.40;;;5.70;99.90;;;;;;5011835;28;20565;-76
2024/03/23 06:51:34;;;;;;;43.10;7.22;;;5.80;99.90;;;;;;5010435;28;20061;-77
2024/03/23 06:53:59;;;;;;;42.42;6.93;;;5.90;99.90;;;;;;5011826;28;20033;-77
2024/03/23 06:56:27;;;;;;;30.50;6.07;;;5.90;99.90;;;;;;5011873;28;20018;-78
2024/03/23 06:58:53;;;;;;;32.95;6.25;;;6.00;99.90;;;;;;5010572;28;20048;-77
2024/03/23 07:01:19;;;;;;;34.53;6.53;;;6.00;99.90;;;;;;5010849;28;20435;-77
2024/03/23 07:03:44;;;;;;;33.13;5.80;;;6.10;99.90;;;;;;5009788;28;20042;-75
2024/03/23 07:06:10;;;;;;;49.72;6.18;;;6.10;99.90;;;;;;5009372;28;20033;-78
2024/03/23 07:08:36;;;;;;;34.30;6.10;;;6.20;99.90;;;;;;5010007;28;20391;-77
2024/03/23 07:11:02;;;;;;;29.25;5.65;;;6.30;99.90;;;;;;5010279;28;20030;-77
2024/03/23 07:13:28;;;;;;;35.45;5.63;;;6.40;99.90;;;;;;5010630;28;20088;-77
2024/03/23 07:15:58;;;;;;;40.75;5.78;;;6.50;99.90;;;;;;5013036;28;20045;-76
2024/03/23 07:18:23;;;;;;;27.20;5.35;;;6.50;99.90;;;;;;5014188;28;20053;-76
2024/03/23 07:20:56;;;;;;;24.30;5.60;;;6.70;99.90;;;;;;5014309;28;20022;-77
2024/03/23 07:23:22;;;;;;;36.97;5.90;;;6.70;99.90;;;;;;5014557;28;20450;-76
2024/03/23 07:26:02;;;;;;;24.40;5.22;;;6.80;99.90;;;;;;5012681;28;20032;-76
2024/03/23 07:28:31;;;;;;;28.45;5.43;;;6.90;99.90;;;;;;5014410;28;20065;-73
2024/03/23 07:31:10;;;;;;;30.33;5.82;;;6.90;99.90;;;;;;5013999;28;20034;-77
2024/03/23 07:33:37;;;;;;;29.95;5.75;;;7.00;99.90;;;;;;5013784;28;20038;-78
2024/03/23 07:36:04;;;;;;;31.38;5.68;;;7.10;99.90;;;;;;5020605;28;20037;-77
2024/03/23 07:38:29;;;;;;;39.25;5.43;;;7.20;99.90;;;;;;5015558;28;20101;-78
2024/03/23 07:41:06;;;;;;;31.20;5.50;;;7.30;99.90;;;;;;5013234;28;20565;-76
2024/03/23 07:43:31;;;;;;;35.83;5.65;;;7.40;99.90;;;;;;5012036;28;20049;-77
2024/03/23 07:45:57;;;;;;;34.92;5.95;;;7.50;99.90;;;;;;5013659;28;20030;-78
2024/03/23 07:48:23;;;;;;;28.95;5.40;;;7.50;99.90;;;;;;5013114;28;20050;-76
2024/03/23 07:51:08;;;;;;;28.00;5.20;;;7.60;99.90;;;;;;5013372;28;20030;-79
2024/03/23 07:53:35;;;;;;;29.77;5.75;;;7.60;99.90;;;;;;5013875;28;20402;-77
2024/03/23 07:56:05;;;;;;;33.15;5.85;;;7.60;99.90;;;;;;5035059;28;20101;-78
2024/03/23 07:58:31;;;;;;;43.97;6.20;;;7.60;99.90;;;;;;5012757;28;20077;-76
2024/03/23 08:01:04;;;;;;;26.67;5.43;;;7.70;99.90;;;;;;5013458;28;20049;-77
2024/03/23 08:03:30;;;;;;;25.83;6.00;;;7.90;99.90;;;;;;5009845;28;20061;-74
2024/03/23 08:05:55;;;;;;;25.55;4.78;;;8.00;99.90;;;;;;5014443;28;20037;-74
2024/03/23 08:08:21;;;;;;;33.60;5.72;;;8.00;99.90;;;;;;5030427;28;20093;-80
2024/03/23 08:10:48;;;;;;;28.70;5.28;;;8.10;99.90;;;;;;5014758;28;20034;-76
2024/03/23 08:13:13;;;;;;;23.20;4.57;;;8.30;99.90;;;;;;5013153;28;20045;-74
2024/03/23 08:15:39;;;;;;;28.52;5.03;;;8.50;99.90;;;;;;5013197;28;20471;-76
2024/03/23 08:18:05;;;;;;;20.85;4.47;;;8.60;99.90;;;;;;5012768;28;20227;-78
2024/03/23 08:20:30;;;;;;;31.38;4.45;;;8.70;99.90;;;;;;5015281;28;20050;-76
2024/03/23 08:22:56;;;;;;;28.73;4.45;;;8.90;99.90;;;;;;5014029;28;20050;-75
2024/03/23 08:25:21;;;;;;;26.58;5.25;;;8.90;99.90;;;;;;5012423;28;20034;-76
2024/03/23 08:27:47;;;;;;;32.67;5.28;;;9.00;99.90;;;;;;5015439;28;20480;-73
2024/03/23 08:30:13;;;;;;;28.23;5.15;;;9.10;99.90;;;;;;5012285;28;20030;-75
2024/03/23 08:32:38;;;;;;;25.70;4.55;;;9.30;99.90;;;;;;5012661;28;20037;-78
2024/03/23 08:35:04;;;;;;;29.55;6.78;;;9.70;99.90;;;;;;5013680;28;20710;-75
2024/03/23 08:37:30;;;;;;;27.83;5.30;;;9.80;99.90;;;;;;5013375;28;20106;-75
2024/03/23 08:39:55;;;;;;;25.45;3.70;;;10.00;99.90;;;;;;5013307;28;20369;-78
2024/03/23 08:42:21;;;;;;;22.20;4.10;;;10.10;99.90;;;;;;5015928;28;20054;-76
2024/03/23 08:44:49;;;;;;;26.67;4.40;;;10.10;99.90;;;;;;5012913;28;20034;-78
2024/03/23 08:47:15;;;;;;;20.67;4.03;;;10.10;99.90;;;;;;5013434;28;20026;-77
2024/03/23 08:49:41;;;;;;;23.52;4.80;;;9.90;99.90;;;;;;5012568;28;20399;-76
2024/03/23 08:52:07;;;;;;;20.05;4.03;;;9.80;99.90;;;;;;5012395;28;20049;-73
2024/03/23 08:54:33;;;;;;;19.17;3.63;;;9.80;99.90;;;;;;5013091;28;20383;-76
2024/03/23 08:57:00;;;;;;;18.77;3.92;;;9.80;99.90;;;;;;5014910;28;20053;-75
2024/03/23 08:59:25;;;;;;;20.50;3.63;;;9.70;99.90;;;;;;5010888;28;20037;-80
2024/03/23 09:01:51;;;;;;;12.88;3.08;;;9.90;99.90;;;;;;5012417;28;20038;-77
2024/03/23 09:04:17;;;;;;;25.95;3.50;;;10.00;99.90;;;;;;5012248;28;20029;-76
2024/03/23 09:06:43;;;;;;;18.65;3.17;;;10.30;99.90;;;;;;5011380;28;20121;-79
2024/03/23 09:09:09;;;;;;;23.38;3.50;;;10.30;99.90;;;;;;5012364;28;20033;-77
2024/03/23 09:11:34;;;;;;;24.70;3.65;;;10.20;99.90;;;;;;5013519;28;21128;-77
2024/03/23 09:14:00;;;;;;;16.67;2.90;;;10.40;99.90;;;;;;5011981;28;20061;-76
2024/03/23 09:16:25;;;;;;;17.38;2.58;;;10.20;99.90;;;;;;5011962;28;20018;-75
2024/03/23 09:18:52;;;;;;;33.25;4.68;;;9.90;99.90;;;;;;5011266;28;20116;-76
2024/03/23 09:21:18;;;;;;;21.90;3.30;;;9.60;99.90;;;;;;5011308;28;20038;-76
2024/03/23 09:23:44;;;;;;;16.23;2.53;;;9.30;99.90;;;;;;5011515;28;20086;-75
2024/03/23 09:26:10;;;;;;;12.75;2.47;;;9.10;99.90;;;;;;5011947;28;20057;-76
2024/03/23 09:28:36;;;;;;;14.27;2.45;;;9.00;99.90;;;;;;5010751;28;20026;-75
2024/03/23 09:31:05;;;;;;;14.57;2.90;;;9.00;99.90;;;;;;5010414;28;20041;-77
2024/03/23 09:33:31;;;;;;;15.85;3.20;;;9.20;99.90;;;;;;5011200;28;20075;-75
2024/03/23 09:35:57;;;;;;;14.85;3.17;;;9.60;99.90;;;;;;5013775;28;20030;-74
2024/03/23 09:38:23;;;;;;;11.90;2.60;;;9.90;99.90;;;;;;5013280;28;20045;-75
2024/03/23 09:40:53;;;;;;;16.58;2.90;;;10.30;99.90;;;;;;5011243;28;20042;-75
2024/03/23 09:43:19;;;;;;;22.35;2.80;;;10.60;99.90;;;;;;5012536;28;20487;-77
2024/03/23 09:45:46;;;;;;;16.42;2.92;;;10.90;99.90;;;;;;5011208;28;20041;-76
2024/03/23 09:48:13;;;;;;;11.48;3.15;;;11.10;99.90;;;;;;5010300;28;20033;-77
2024/03/23 09:50:39;;;;;;;13.55;2.50;;;11.40;99.90;;;;;;5009833;28;20030;-76
2024/03/23 09:53:10;;;;;;;12.05;2.63;;;11.40;99.90;;;;;;5010902;28;20030;-77
2024/03/23 09:55:35;;;;;;;14.93;2.80;;;11.20;99.90;;;;;;5011258;28;20117;-78
2024/03/23 09:58:04;;;;;;;13.35;2.55;;;10.80;99.90;;;;;;5009264;28;20033;-77
2024/03/23 10:00:32;;;;;;;13.60;2.28;;;10.50;99.90;;;;;;5010598;28;20029;-76
2024/03/23 10:03:01;;;;;;;11.02;2.05;;;10.30;99.90;;;;;;5032730;28;20049;-76
2024/03/23 10:05:28;;;;;;;16.17;2.70;;;9.90;99.90;;;;;;5011789;28;20014;-77
2024/03/23 10:07:54;;;;;;;15.88;2.72;;;9.70;99.90;;;;;;5010150;28;20034;-77
2024/03/23 10:10:21;;;;;;;20.27;3.10;;;9.40;99.90;;;;;;5011087;28;20084;-76
2024/03/23 10:12:53;;;;;;;17.20;3.00;;;9.40;99.90;;;;;;5010603;28;20057;-76
2024/03/23 10:15:25;;;;;;;19.17;3.13;;;9.40;99.90;;;;;;5007992;28;20026;-77
2024/03/23 10:17:51;;;;;;;11.15;2.53;;;9.40;99.90;;;;;;5009267;28;20062;-75
2024/03/23 10:20:23;;;;;;;15.98;3.00;;;9.50;99.90;;;;;;5010154;28;20106;-76
2024/03/23 10:22:51;;;;;;;14.68;3.63;;;9.30;99.90;;;;;;5010035;28;20102;-76
2024/03/23 10:25:22;;;;;;;11.50;2.70;;;9.70;99.90;;;;;;5010336;28;20022;-74
2024/03/23 10:27:59;;;;;;;11.93;2.78;;;9.90;99.90;;;;;;5011054;28;20037;-76
2024/03/23 10:30:27;;;;;;;14.45;2.67;;;10.20;99.90;;;;;;5009075;28;20034;-75
2024/03/23 10:33:10;;;;;;;14.77;3.25;;;10.50;99.90;;;;;;5009305;28;20036;-75
2024/03/23 10:35:37;;;;;;;16.90;3.17;;;10.80;99.90;;;;;;5011532;28;20022;-73
2024/03/23 10:38:07;;;;;;;12.05;2.97;;;11.10;99.90;;;;;;5010526;28;20066;-72
2024/03/23 10:40:36;;;;;;;8.63;2.50;;;11.30;99.90;;;;;;5008914;28;20081;-72
2024/03/23 10:43:04;;;;;;;14.57;3.17;;;11.20;99.90;;;;;;5010763;28;20090;-75
2024/03/23 10:45:30;;;;;;;15.02;3.20;;;11.10;99.90;;;;;;5009713;28;20093;-73
2024/03/23 10:47:55;;;;;;;18.42;3.75;;;11.10;99.90;;;;;;5009389;28;20471;-72
2024/03/23 10:50:22;;;;;;;12.77;3.20;;;11.10;99.90;;;;;;5012085;28;20068;-73
2024/03/23 10:52:49;;;;;;;13.35;2.90;;;11.10;99.90;;;;;;5013180;28;20029;-75
2024/03/23 10:55:19;;;;;;;10.15;2.90;;;10.90;99.90;;;;;;5014466;28;20032;-73
2024/03/23 10:57:51;;;;;;;11.95;2.88;;;10.90;99.90;;;;;;5015121;28;20044;-73
2024/03/23 11:00:17;;;;;;;10.77;2.60;;;10.90;99.90;;;;;;5015038;28;20042;-78
2024/03/23 11:02:43;;;;;;;14.68;3.00;;;10.70;99.90;;;;;;5014102;28;20406;-72
2024/03/23 11:05:31;;;;;;;9.15;2.28;;;10.60;99.90;;;;;;5027727;28;20025;-75
2024/03/23 11:07:56;;;;;;;9.85;2.65;;;10.30;99.90;;;;;;5013529;28;20511;-78
2024/03/23 11:10:30;;;;;;;7.47;2.47;;;10.20;99.90;;;;;;5014930;28;20109;-75
2024/03/23 11:13:17;;;;;;;9.50;2.77;;;10.20;99.90;;;;;;5014982;28;20018;-76
2024/03/23 11:15:43;;;;;;;9.90;2.53;;;10.10;99.90;;;;;;5021506;28;20014;-75
2024/03/23 11:18:09;;;;;;;11.30;2.85;;;10.30;99.90;;;;;;5013181;28;20117;-74
2024/03/23 11:20:35;;;;;;;15.15;3.50;;;10.50;99.90;;;;;;5014381;28;20044;-73
2024/03/23 11:23:01;;;;;;;10.15;2.80;;;10.60;99.90;;;;;;5015267;28;20022;-79
2024/03/23 11:25:28;;;;;;;9.77;2.72;;;10.50;99.90;;;;;;5014896;28;20029;-75
2024/03/23 11:28:08;;;;;;;11.65;2.47;;;10.20;99.90;;;;;;5014808;28;20018;-73
2024/03/23 11:30:34;;;;;;;7.07;2.38;;;10.10;99.90;;;;;;5014702;28;20031;-76
2024/03/23 11:33:02;;;;;;;16.35;2.60;;;10.00;99.90;;;;;;5013887;28;20045;-74
2024/03/23 11:35:40;;;;;;;6.75;2.60;;;9.90;99.90;;;;;;5014951;28;20093;-73
2024/03/23 11:38:14;;;;;;;7.90;2.65;;;9.80;99.90;;;;;;5014930;28;20463;-74
2024/03/23 11:40:45;;;;;;;11.85;3.00;;;10.10;99.90;;;;;;5013456;28;20037;-78
2024/03/23 11:43:14;;;;;;;11.27;2.95;;;10.20;99.90;;;;;;5013250;28;20117;-76
2024/03/23 11:45:47;;;;;;;9.88;2.90;;;10.10;99.90;;;;;;5012517;28;20089;-76
2024/03/23 11:48:14;;;;;;;12.95;3.17;;;10.20;99.90;;;;;;5017171;28;20030;-77
2024/03/23 11:50:43;;;;;;;7.38;2.17;;;10.20;99.90;;;;;;5012968;28;20043;-76
2024/03/23 11:53:11;;;;;;;13.32;2.85;;;10.50;99.90;;;;;;5013202;28;20104;-77
2024/03/23 11:55:48;;;;;;;10.13;2.75;;;10.60;99.90;;;;;;5013221;28;20429;-75
2024/03/23 11:58:14;;;;;;;9.02;3.45;;;10.40;99.90;;;;;;5012244;28;20536;-78
2024/03/23 12:00:40;;;;;;;16.35;2.60;;;10.30;99.90;;;;;;5012241;28;20046;-77
2024/03/23 12:03:06;;;;;;;7.75;2.55;;;10.20;99.90;;;;;;5012016;28;20046;-74
2024/03/23 12:05:33;;;;;;;6.30;2.33;;;10.10;99.90;;;;;;5013685;28;20057;-77
2024/03/23 12:08:18;;;;;;;8.93;2.03;;;10.00;99.90;;;;;;5013546;28;20069;-73
2024/03/23 12:10:53;;;;;;;;;;;9.80;99.90;;;;;;5016478;28;20053;-73
2024/03/23 12:13:21;;;;;;;2.97;0.93;;;9.00;99.90;;;;;;5014341;28;20414;-71
2024/03/23 12:15:49;;;;;;;1.70;0.63;;;8.40;99.90;;;;;;5011292;28;20034;-76
2024/03/23 12:18:15;;;;;;;1.42;0.63;;;7.70;99.90;;;;;;5013950;28;20065;-74
2024/03/23 12:20:41;;;;;;;3.97;0.95;;;7.10;99.90;;;;;;5011740;28;20053;-73
2024/03/23 12:23:09;;;;;;;2.65;0.50;;;6.60;99.90;;;;;;5012490;28;20045;-75
2024/03/23 12:25:35;;;;;;;3.28;0.70;;;5.90;99.90;;;;;;5012925;28;20029;-74
2024/03/23 12:28:01;;;;;;;5.35;1.08;;;5.40;99.90;;;;;;5013224;28;20038;-77
2024/03/23 12:30:27;;;;;;;2.30;0.47;;;4.90;99.90;;;;;;5014173;28;20034;-75
2024/03/23 12:32:52;;;;;;;3.20;0.75;;;4.80;99.90;;;;;;5013683;28;20023;-74
2024/03/23 12:35:18;;;;;;;3.20;0.60;;;4.60;99.90;;;;;;5011703;28;20033;-73
2024/03/23 12:37:44;;;;;;;6.38;1.15;;;4.70;99.90;;;;;;5013068;28;20038;-74
2024/03/23 12:40:10;;;;;;;2.67;0.77;;;5.00;99.90;;;;;;5011764;28;20550;-71
2024/03/23 12:42:35;;;;;;;7.07;2.63;;;5.20;99.90;;;;;;5012782;28;20106;-74
2024/03/23 12:45:01;;;;;;;5.93;1.40;;;5.30;99.90;;;;;;5011592;28;20053;-74